sensor_id;sensor_type;location;lat;lon;timestamp;temperature;humidity
60027;DHT22;45891;53.006;6.512;2023-04-25T00:00:00;6.60;99.90
60027;DHT22;45891;53.006;6.512;2023-04-25T00:02:27;6.60;99.90
60027;DHT22;45891;53.006;6.512;2023-04-25T00:04:53;6.60;99.90
60027;DHT22;45891;53.006;6.512;2023-04-25T00:07:20;6.60;99.90
60027;DHT22;45891;53.006;6.512;2023-04-25T00:09:46;6.60;99.90
60027;DHT22;45891;53.006;6.512;2023-04-25T00:12:12;6.60;99.90
60027;DHT22;45891;53.006;6.512;2023-04-25T00:14:38;6.60;99.90
60027;DHT22;45891;53.006;6.512;2023-04-25T00:17:04;6.60;99.90
60027;DHT22;45891;53.006;6.512;2023-04-25T00:19:31;6.60;99.90
60027;DHT22;45891;53.006;6.512;2023-04-25T00:21:58;6.60;99.90
60027;DHT22;45891;53.006;6.512;2023-04-25T00:24:24;6.60;99.90
60027;DHT22;45891;53.006;6.512;2023-04-25T00:26:50;6.60;99.90
60027;DHT22;45891;53.006;6.512;2023-04-25T00:29:16;6.50;99.90
60027;DHT22;45891;53.006;6.512;2023-04-25T00:31:42;6.50;99.90
60027;DHT22;45891;53.006;6.512;2023-04-25T00:34:08;6.30;99.90
60027;DHT22;45891;53.006;6.512;2023-04-25T00:36:35;6.20;99.90
60027;DHT22;45891;53.006;6.512;2023-04-25T00:39:01;6.10;99.90
60027;DHT22;45891;53.006;6.512;2023-04-25T00:41:27;6.10;99.90
60027;DHT22;45891;53.006;6.512;2023-04-25T00:43:54;6.10;99.90
60027;DHT22;45891;53.006;6.512;2023-04-25T00:46:21;6.00;99.90
60027;DHT22;45891;53.006;6.512;2023-04-25T00:48:47;6.10;99.90
60027;DHT22;45891;53.006;6.512;2023-04-25T00:51:16;6.00;99.90
60027;DHT22;45891;53.006;6.512;2023-04-25T00:53:44;6.00;99.90
60027;DHT22;45891;53.006;6.512;2023-04-25T00:56:11;6.00;99.90
60027;DHT22;45891;53.006;6.512;2023-04-25T00:58:37;6.00;99.90
60027;DHT22;45891;53.006;6.512;2023-04-25T01:01:04;6.00;99.90
60027;DHT22;45891;53.006;6.512;2023-04-25T01:03:32;6.00;99.90
60027;DHT22;45891;53.006;6.512;2023-04-25T01:05:59;6.00;99.90
60027;DHT22;45891;53.006;6.512;2023-04-25T01:08:25;5.90;99.90
60027;DHT22;45891;53.006;6.512;2023-04-25T01:10:51;5.90;99.90
60027;DHT22;45891;53.006;6.512;2023-04-25T01:13:17;5.90;99.90
60027;DHT22;45891;53.006;6.512;2023-04-25T01:15:43;5.80;99.90
60027;DHT22;45891;53.006;6.512;2023-04-25T01:18:09;5.70;99.90
60027;DHT22;45891;53.006;6.512;2023-04-25T01:20:37;5.70;99.90
60027;DHT22;45891;53.006;6.512;2023-04-25T01:23:04;5.70;99.90
60027;DHT22;45891;53.006;6.512;2023-04-25T01:25:31;5.70;99.90
60027;DHT22;45891;53.006;6.512;2023-04-25T01:27:58;5.70;99.90
60027;DHT22;45891;53.006;6.512;2023-04-25T01:30:26;5.70;99.90
60027;DHT22;45891;53.006;6.512;2023-04-25T01:32:55;5.70;99.90
60027;DHT22;45891;53.006;6.512;2023-04-25T01:35:22;5.70;99.90
60027;DHT22;45891;53.006;6.512;2023-04-25T01:37:50;5.70;99.90
60027;DHT22;45891;53.006;6.512;2023-04-25T01:40:17;5.70;99.90
60027;DHT22;45891;53.006;6.512;2023-04-25T01:42:45;5.70;99.90
60027;DHT22;45891;53.006;6.512;2023-04-25T01:45:11;5.70;99.90
60027;DHT22;45891;53.006;6.512;2023-04-25T01:47:39;5.70;99.90
60027;DHT22;45891;53.006;6.512;2023-04-25T01:50:09;5.70;99.90
60027;DHT22;45891;53.006;6.512;2023-04-25T01:52:35;5.70;99.90
60027;DHT22;45891;53.006;6.512;2023-04-25T01:55:02;5.70;99.90
60027;DHT22;45891;53.006;6.512;2023-04-25T01:57:28;5.70;99.90
60027;DHT22;45891;53.006;6.512;2023-04-25T02:00:00;5.80;99.90
60027;DHT22;45891;53.006;6.512;2023-04-25T02:02:27;5.70;99.90
60027;DHT22;45891;53.006;6.512;2023-04-25T02:04:53;5.70;99.90
60027;DHT22;45891;53.006;6.512;2023-04-25T02:07:20;5.70;99.90
60027;DHT22;45891;53.006;6.512;2023-04-25T02:09:46;5.80;99.90
60027;DHT22;45891;53.006;6.512;2023-04-25T02:12:12;5.70;99.90
60027;DHT22;45891;53.006;6.512;2023-04-25T02:14:39;5.80;99.90
60027;DHT22;45891;53.006;6.512;2023-04-25T02:17:05;5.80;99.90
60027;DHT22;45891;53.006;6.512;2023-04-25T02:19:31;5.80;99.90
60027;DHT22;45891;53.006;6.512;2023-04-25T02:21:57;5.80;99.90
60027;DHT22;45891;53.006;6.512;2023-04-25T02:24:24;5.70;99.90
60027;DHT22;45891;53.006;6.512;2023-04-25T02:26:50;5.70;99.90
60027;DHT22;45891;53.006;6.512;2023-04-25T02:29:16;5.80;99.90
60027;DHT22;45891;53.006;6.512;2023-04-25T02:31:42;5.80;99.90
60027;DHT22;45891;53.006;6.512;2023-04-25T02:34:08;5.70;99.90
60027;DHT22;45891;53.006;6.512;2023-04-25T02:36:34;5.80;99.90
60027;DHT22;45891;53.006;6.512;2023-04-25T02:39:01;5.70;99.90
60027;DHT22;45891;53.006;6.512;2023-04-25T02:41:29;5.70;99.90
60027;DHT22;45891;53.006;6.512;2023-04-25T02:43:55;5.70;99.90
60027;DHT22;45891;53.006;6.512;2023-04-25T02:46:21;5.70;99.90
60027;DHT22;45891;53.006;6.512;2023-04-25T02:48:47;5.70;99.90
60027;DHT22;45891;53.006;6.512;2023-04-25T02:51:13;5.70;99.90
60027;DHT22;45891;53.006;6.512;2023-04-25T02:53:39;5.70;99.90
60027;DHT22;45891;53.006;6.512;2023-04-25T02:56:05;5.70;99.90
60027;DHT22;45891;53.006;6.512;2023-04-25T02:58:32;5.70;99.90
60027;DHT22;45891;53.006;6.512;2023-04-25T03:00:58;5.70;99.90
60027;DHT22;45891;53.006;6.512;2023-04-25T03:03:24;5.70;99.90
60027;DHT22;45891;53.006;6.512;2023-04-25T03:05:50;5.70;99.90
60027;DHT22;45891;53.006;6.512;2023-04-25T03:08:17;5.70;99.90
60027;DHT22;45891;53.006;6.512;2023-04-25T03:10:44;5.70;99.90
60027;DHT22;45891;53.006;6.512;2023-04-25T03:13:11;5.70;99.90
60027;DHT22;45891;53.006;6.512;2023-04-25T03:15:39;5.70;99.90
60027;DHT22;45891;53.006;6.512;2023-04-25T03:18:05;5.70;99.90
60027;DHT22;45891;53.006;6.512;2023-04-25T03:20:31;5.80;99.90
60027;DHT22;45891;53.006;6.512;2023-04-25T03:22:57;5.70;99.90
60027;DHT22;45891;53.006;6.512;2023-04-25T03:25:23;5.70;99.90
60027;DHT22;45891;53.006;6.512;2023-04-25T03:27:49;5.60;99.90
60027;DHT22;45891;53.006;6.512;2023-04-25T03:30:15;5.50;99.90
60027;DHT22;45891;53.006;6.512;2023-04-25T03:32:41;5.40;99.90
60027;DHT22;45891;53.006;6.512;2023-04-25T03:35:08;5.40;99.90
60027;DHT22;45891;53.006;6.512;2023-04-25T03:37:34;5.30;99.90
60027;DHT22;45891;53.006;6.512;2023-04-25T03:40:00;5.30;99.90
60027;DHT22;45891;53.006;6.512;2023-04-25T03:42:26;5.30;99.90
60027;DHT22;45891;53.006;6.512;2023-04-25T03:44:52;5.30;99.90
60027;DHT22;45891;53.006;6.512;2023-04-25T03:47:18;5.20;99.90
60027;DHT22;45891;53.006;6.512;2023-04-25T03:49:44;5.10;99.90
60027;DHT22;45891;53.006;6.512;2023-04-25T03:52:11;5.20;99.90
60027;DHT22;45891;53.006;6.512;2023-04-25T03:54:37;5.10;99.90
60027;DHT22;45891;53.006;6.512;2023-04-25T03:57:03;5.10;99.90
60027;DHT22;45891;53.006;6.512;2023-04-25T03:59:29;5.10;99.90
60027;DHT22;45891;53.006;6.512;2023-04-25T04:01:55;5.10;99.90
60027;DHT22;45891;53.006;6.512;2023-04-25T04:04:21;5.10;99.90
60027;DHT22;45891;53.006;6.512;2023-04-25T04:06:47;5.10;99.90
60027;DHT22;45891;53.006;6.512;2023-04-25T04:09:13;5.10;99.90
60027;DHT22;45891;53.006;6.512;2023-04-25T04:11:39;5.00;99.90
60027;DHT22;45891;53.006;6.512;2023-04-25T04:14:06;5.00;99.90
60027;DHT22;45891;53.006;6.512;2023-04-25T04:16:33;5.00;99.90
60027;DHT22;45891;53.006;6.512;2023-04-25T04:18:59;4.90;99.90
60027;DHT22;45891;53.006;6.512;2023-04-25T04:21:25;4.90;99.90
60027;DHT22;45891;53.006;6.512;2023-04-25T04:23:53;4.90;99.90
60027;DHT22;45891;53.006;6.512;2023-04-25T04:26:20;4.90;99.90
60027;DHT22;45891;53.006;6.512;2023-04-25T04:28:50;4.80;99.90
60027;DHT22;45891;53.006;6.512;2023-04-25T04:31:20;4.80;99.90
60027;DHT22;45891;53.006;6.512;2023-04-25T04:33:47;4.90;99.90
60027;DHT22;45891;53.006;6.512;2023-04-25T04:36:13;4.90;99.90
60027;DHT22;45891;53.006;6.512;2023-04-25T04:38:39;4.90;99.90
60027;DHT22;45891;53.006;6.512;2023-04-25T04:41:07;4.90;99.90
60027;DHT22;45891;53.006;6.512;2023-04-25T04:43:33;5.00;99.90
60027;DHT22;45891;53.006;6.512;2023-04-25T04:46:02;5.00;99.90
60027;DHT22;45891;53.006;6.512;2023-04-25T04:48:31;5.00;99.90
60027;DHT22;45891;53.006;6.512;2023-04-25T04:51:00;5.00;99.90
60027;DHT22;45891;53.006;6.512;2023-04-25T04:53:26;5.00;99.90
60027;DHT22;45891;53.006;6.512;2023-04-25T04:55:53;5.00;99.90
60027;DHT22;45891;53.006;6.512;2023-04-25T04:58:19;5.00;99.90
60027;DHT22;45891;53.006;6.512;2023-04-25T05:00:45;4.90;99.90
60027;DHT22;45891;53.006;6.512;2023-04-25T05:03:12;5.00;99.90
60027;DHT22;45891;53.006;6.512;2023-04-25T05:05:38;4.90;99.90
60027;DHT22;45891;53.006;6.512;2023-04-25T05:08:06;4.90;99.90
60027;DHT22;45891;53.006;6.512;2023-04-25T05:10:32;5.00;99.90
60027;DHT22;45891;53.006;6.512;2023-04-25T05:12:58;5.00;99.90
60027;DHT22;45891;53.006;6.512;2023-04-25T05:15:24;5.20;99.90
60027;DHT22;45891;53.006;6.512;2023-04-25T05:17:50;5.50;99.90
60027;DHT22;45891;53.006;6.512;2023-04-25T05:20:16;5.80;99.90
60027;DHT22;45891;53.006;6.512;2023-04-25T05:22:44;6.00;99.90
60027;DHT22;45891;53.006;6.512;2023-04-25T05:25:11;6.20;99.90
60027;DHT22;45891;53.006;6.512;2023-04-25T05:27:37;6.30;99.90
60027;DHT22;45891;53.006;6.512;2023-04-25T05:30:03;6.20;99.90
60027;DHT22;45891;53.006;6.512;2023-04-25T05:32:30;6.20;99.90
60027;DHT22;45891;53.006;6.512;2023-04-25T05:34:57;6.20;99.90
60027;DHT22;45891;53.006;6.512;2023-04-25T05:37:23;6.10;99.90
60027;DHT22;45891;53.006;6.512;2023-04-25T05:39:49;6.00;99.90
60027;DHT22;45891;53.006;6.512;2023-04-25T05:42:15;6.00;99.90
60027;DHT22;45891;53.006;6.512;2023-04-25T05:44:41;5.90;99.90
60027;DHT22;45891;53.006;6.512;2023-04-25T05:47:07;5.90;99.90
60027;DHT22;45891;53.006;6.512;2023-04-25T05:49:34;6.10;99.90
60027;DHT22;45891;53.006;6.512;2023-04-25T05:52:00;6.40;99.90
60027;DHT22;45891;53.006;6.512;2023-04-25T05:54:26;6.80;99.90
60027;DHT22;45891;53.006;6.512;2023-04-25T05:56:52;7.00;99.90
60027;DHT22;45891;53.006;6.512;2023-04-25T05:59:19;7.00;99.90
60027;DHT22;45891;53.006;6.512;2023-04-25T06:01:45;7.30;99.90
60027;DHT22;45891;53.006;6.512;2023-04-25T06:04:12;7.50;99.90
60027;DHT22;45891;53.006;6.512;2023-04-25T06:06:38;7.80;99.90
60027;DHT22;45891;53.006;6.512;2023-04-25T06:09:04;8.00;99.90
60027;DHT22;45891;53.006;6.512;2023-04-25T06:11:31;8.10;99.90
60027;DHT22;45891;53.006;6.512;2023-04-25T06:13:57;8.20;99.90
60027;DHT22;45891;53.006;6.512;2023-04-25T06:16:23;8.30;99.90
60027;DHT22;45891;53.006;6.512;2023-04-25T06:18:51;8.30;99.90
60027;DHT22;45891;53.006;6.512;2023-04-25T06:21:17;8.40;99.90
60027;DHT22;45891;53.006;6.512;2023-04-25T06:23:43;8.40;99.90
60027;DHT22;45891;53.006;6.512;2023-04-25T06:26:10;8.70;99.90
60027;DHT22;45891;53.006;6.512;2023-04-25T06:28:36;8.90;99.90
60027;DHT22;45891;53.006;6.512;2023-04-25T06:31:02;8.90;99.90
60027;DHT22;45891;53.006;6.512;2023-04-25T06:33:28;8.70;99.90
60027;DHT22;45891;53.006;6.512;2023-04-25T06:35:54;8.30;99.90
60027;DHT22;45891;53.006;6.512;2023-04-25T06:38:20;7.70;99.90
60027;DHT22;45891;53.006;6.512;2023-04-25T06:40:46;7.50;99.90
60027;DHT22;45891;53.006;6.512;2023-04-25T06:43:13;7.20;99.90
60027;DHT22;45891;53.006;6.512;2023-04-25T06:45:39;7.00;99.90
60027;DHT22;45891;53.006;6.512;2023-04-25T06:48:05;6.90;99.90
60027;DHT22;45891;53.006;6.512;2023-04-25T06:50:31;6.90;99.90
60027;DHT22;45891;53.006;6.512;2023-04-25T06:52:57;7.10;99.90
60027;DHT22;45891;53.006;6.512;2023-04-25T06:55:23;7.70;99.90
60027;DHT22;45891;53.006;6.512;2023-04-25T06:57:49;8.20;99.90
60027;DHT22;45891;53.006;6.512;2023-04-25T07:00:16;8.50;99.90
60027;DHT22;45891;53.006;6.512;2023-04-25T07:02:42;8.70;99.90
60027;DHT22;45891;53.006;6.512;2023-04-25T07:05:09;8.50;99.90
60027;DHT22;45891;53.006;6.512;2023-04-25T07:07:35;8.20;99.90
60027;DHT22;45891;53.006;6.512;2023-04-25T07:10:01;8.20;99.90
60027;DHT22;45891;53.006;6.512;2023-04-25T07:12:28;8.20;99.90
60027;DHT22;45891;53.006;6.512;2023-04-25T07:14:54;8.00;99.90
60027;DHT22;45891;53.006;6.512;2023-04-25T07:17:20;7.80;99.90
60027;DHT22;45891;53.006;6.512;2023-04-25T07:19:46;7.70;99.90
60027;DHT22;45891;53.006;6.512;2023-04-25T07:22:12;8.00;99.90
60027;DHT22;45891;53.006;6.512;2023-04-25T07:24:38;8.10;99.90
60027;DHT22;45891;53.006;6.512;2023-04-25T07:27:04;7.90;99.90
60027;DHT22;45891;53.006;6.512;2023-04-25T07:29:30;8.00;99.90
60027;DHT22;45891;53.006;6.512;2023-04-25T07:31:57;7.90;99.90
60027;DHT22;45891;53.006;6.512;2023-04-25T07:34:23;8.50;99.90
60027;DHT22;45891;53.006;6.512;2023-04-25T07:36:49;8.90;99.90
60027;DHT22;45891;53.006;6.512;2023-04-25T07:39:16;8.90;99.90
60027;DHT22;45891;53.006;6.512;2023-04-25T07:41:42;9.10;99.90
60027;DHT22;45891;53.006;6.512;2023-04-25T07:44:08;9.40;99.90
60027;DHT22;45891;53.006;6.512;2023-04-25T07:46:34;9.80;99.90
60027;DHT22;45891;53.006;6.512;2023-04-25T07:49:00;9.80;99.90
60027;DHT22;45891;53.006;6.512;2023-04-25T07:51:26;9.10;99.90
60027;DHT22;45891;53.006;6.512;2023-04-25T07:53:53;8.40;99.90
60027;DHT22;45891;53.006;6.512;2023-04-25T07:56:19;8.30;99.90
60027;DHT22;45891;53.006;6.512;2023-04-25T07:58:45;8.00;99.90
60027;DHT22;45891;53.006;6.512;2023-04-25T08:01:11;7.70;99.90
60027;DHT22;45891;53.006;6.512;2023-04-25T08:03:37;7.50;99.90
60027;DHT22;45891;53.006;6.512;2023-04-25T08:06:04;7.40;99.90
60027;DHT22;45891;53.006;6.512;2023-04-25T08:08:30;7.40;99.90
60027;DHT22;45891;53.006;6.512;2023-04-25T08:10:56;7.50;99.90
60027;DHT22;45891;53.006;6.512;2023-04-25T08:13:22;7.60;99.90
60027;DHT22;45891;53.006;6.512;2023-04-25T08:15:48;7.70;99.90
60027;DHT22;45891;53.006;6.512;2023-04-25T08:18:14;8.00;99.90
60027;DHT22;45891;53.006;6.512;2023-04-25T08:20:40;8.30;99.90
60027;DHT22;45891;53.006;6.512;2023-04-25T08:23:06;8.70;99.90
60027;DHT22;45891;53.006;6.512;2023-04-25T08:25:33;8.90;99.90
60027;DHT22;45891;53.006;6.512;2023-04-25T08:27:59;9.00;99.90
60027;DHT22;45891;53.006;6.512;2023-04-25T08:30:29;9.10;99.90
60027;DHT22;45891;53.006;6.512;2023-04-25T08:32:55;10.10;99.90
60027;DHT22;45891;53.006;6.512;2023-04-25T08:35:21;10.20;98.50
60027;DHT22;45891;53.006;6.512;2023-04-25T08:37:47;10.20;99.30
60027;DHT22;45891;53.006;6.512;2023-04-25T08:40:15;10.50;98.00
60027;DHT22;45891;53.006;6.512;2023-04-25T08:42:41;10.60;98.60
60027;DHT22;45891;53.006;6.512;2023-04-25T08:45:09;10.80;99.90
60027;DHT22;45891;53.006;6.512;2023-04-25T08:47:38;11.80;99.90
60027;DHT22;45891;53.006;6.512;2023-04-25T08:50:05;11.30;99.20
60027;DHT22;45891;53.006;6.512;2023-04-25T08:52:43;9.80;99.90
60027;DHT22;45891;53.006;6.512;2023-04-25T08:55:12;8.80;99.90
60027;DHT22;45891;53.006;6.512;2023-04-25T08:57:39;8.80;99.90
60027;DHT22;45891;53.006;6.512;2023-04-25T09:00:07;10.10;99.90
60027;DHT22;45891;53.006;6.512;2023-04-25T09:02:34;10.60;99.90
60027;DHT22;45891;53.006;6.512;2023-04-25T09:05:01;9.40;99.90
60027;DHT22;45891;53.006;6.512;2023-04-25T09:07:28;8.80;99.90
60027;DHT22;45891;53.006;6.512;2023-04-25T09:09:54;8.20;99.90
60027;DHT22;45891;53.006;6.512;2023-04-25T09:12:20;8.30;99.90
60027;DHT22;45891;53.006;6.512;2023-04-25T09:15:06;8.50;99.90
60027;DHT22;45891;53.006;6.512;2023-04-25T09:17:33;8.90;99.90
60027;DHT22;45891;53.006;6.512;2023-04-25T09:20:17;9.00;99.90
60027;DHT22;45891;53.006;6.512;2023-04-25T09:22:45;9.50;99.90
60027;DHT22;45891;53.006;6.512;2023-04-25T09:25:12;10.10;99.90
60027;DHT22;45891;53.006;6.512;2023-04-25T09:27:53;10.30;99.90
60027;DHT22;45891;53.006;6.512;2023-04-25T09:30:32;10.40;99.90
60027;DHT22;45891;53.006;6.512;2023-04-25T09:33:10;10.50;99.90
60027;DHT22;45891;53.006;6.512;2023-04-25T09:35:43;11.90;99.90
60027;DHT22;45891;53.006;6.512;2023-04-25T09:38:12;12.10;98.70
60027;DHT22;45891;53.006;6.512;2023-04-25T09:40:42;11.40;98.90
60027;DHT22;45891;53.006;6.512;2023-04-25T09:43:22;11.90;99.70
60027;DHT22;45891;53.006;6.512;2023-04-25T09:45:50;12.40;99.90
60027;DHT22;45891;53.006;6.512;2023-04-25T09:48:18;13.00;99.40
60027;DHT22;45891;53.006;6.512;2023-04-25T09:51:04;12.60;99.10
60027;DHT22;45891;53.006;6.512;2023-04-25T09:53:30;11.30;98.40
60027;DHT22;45891;53.006;6.512;2023-04-25T09:55:59;9.40;99.90
60027;DHT22;45891;53.006;6.512;2023-04-25T09:58:29;8.30;99.90
60027;DHT22;45891;53.006;6.512;2023-04-25T10:01:07;8.10;99.90
60027;DHT22;45891;53.006;6.512;2023-04-25T10:03:35;7.90;99.90
60027;DHT22;45891;53.006;6.512;2023-04-25T10:06:08;7.70;99.90
60027;DHT22;45891;53.006;6.512;2023-04-25T10:08:36;8.00;99.90
60027;DHT22;45891;53.006;6.512;2023-04-25T10:11:07;9.40;99.90
60027;DHT22;45891;53.006;6.512;2023-04-25T10:13:35;10.30;99.90
60027;DHT22;45891;53.006;6.512;2023-04-25T10:16:03;11.50;99.90
60027;DHT22;45891;53.006;6.512;2023-04-25T10:18:30;12.60;99.90
60027;DHT22;45891;53.006;6.512;2023-04-25T10:21:01;13.00;99.90
60027;DHT22;45891;53.006;6.512;2023-04-25T10:23:30;13.30;99.90
60027;DHT22;45891;53.006;6.512;2023-04-25T10:25:57;13.60;99.90
60027;DHT22;45891;53.006;6.512;2023-04-25T10:28:24;14.20;99.90
60027;DHT22;45891;53.006;6.512;2023-04-25T10:31:03;14.50;99.90
60027;DHT22;45891;53.006;6.512;2023-04-25T10:33:38;14.40;97.90
60027;DHT22;45891;53.006;6.512;2023-04-25T10:36:15;14.70;99.00
60027;DHT22;45891;53.006;6.512;2023-04-25T10:38:44;13.80;96.90
60027;DHT22;45891;53.006;6.512;2023-04-25T10:41:12;12.70;96.90
60027;DHT22;45891;53.006;6.512;2023-04-25T10:43:41;11.90;95.60
60027;DHT22;45891;53.006;6.512;2023-04-25T10:46:25;12.20;96.30
60027;DHT22;45891;53.006;6.512;2023-04-25T10:48:54;12.30;95.10
60027;DHT22;45891;53.006;6.512;2023-04-25T10:51:23;10.70;97.30
60027;DHT22;45891;53.006;6.512;2023-04-25T10:54:04;9.60;99.70
60027;DHT22;45891;53.006;6.512;2023-04-25T10:59:18;8.60;99.90
60027;DHT22;45891;53.006;6.512;2023-04-25T11:01:46;8.60;99.90
60027;DHT22;45891;53.006;6.512;2023-04-25T11:04:24;8.90;99.90
60027;DHT22;45891;53.006;6.512;2023-04-25T11:09:36;10.30;99.90
60027;DHT22;45891;53.006;6.512;2023-04-25T11:12:04;10.70;99.70
60027;DHT22;45891;53.006;6.512;2023-04-25T11:14:30;9.30;99.50
60027;DHT22;45891;53.006;6.512;2023-04-25T11:16:57;8.30;99.90
60027;DHT22;45891;53.006;6.512;2023-04-25T11:19:26;8.00;99.90
60027;DHT22;45891;53.006;6.512;2023-04-25T11:21:57;7.80;99.90
60027;DHT22;45891;53.006;6.512;2023-04-25T11:24:34;7.80;99.90
60027;DHT22;45891;53.006;6.512;2023-04-25T11:27:04;7.50;99.90
60027;DHT22;45891;53.006;6.512;2023-04-25T11:29:32;7.60;99.90
60027;DHT22;45891;53.006;6.512;2023-04-25T11:32:00;8.00;99.90
60027;DHT22;45891;53.006;6.512;2023-04-25T11:34:28;8.30;99.90
60027;DHT22;45891;53.006;6.512;2023-04-25T11:36:56;9.40;99.90
60027;DHT22;45891;53.006;6.512;2023-04-25T11:39:28;10.00;99.90
60027;DHT22;45891;53.006;6.512;2023-04-25T11:41:54;10.60;99.90
60027;DHT22;45891;53.006;6.512;2023-04-25T11:44:21;11.50;99.90
60027;DHT22;45891;53.006;6.512;2023-04-25T11:46:48;11.40;99.30
60027;DHT22;45891;53.006;6.512;2023-04-25T11:49:14;11.00;99.90
60027;DHT22;45891;53.006;6.512;2023-04-25T11:51:44;11.20;99.90
60027;DHT22;45891;53.006;6.512;2023-04-25T11:54:11;11.20;99.50
60027;DHT22;45891;53.006;6.512;2023-04-25T11:56:41;10.50;99.50
60027;DHT22;45891;53.006;6.512;2023-04-25T11:59:07;9.90;99.90
60027;DHT22;45891;53.006;6.512;2023-04-25T12:01:35;9.10;99.90
60027;DHT22;45891;53.006;6.512;2023-04-25T12:04:32;8.80;99.90
60027;DHT22;45891;53.006;6.512;2023-04-25T12:06:58;8.70;99.90
60027;DHT22;45891;53.006;6.512;2023-04-25T12:09:31;9.40;99.70
60027;DHT22;45891;53.006;6.512;2023-04-25T12:11:58;10.40;99.20
60027;DHT22;45891;53.006;6.512;2023-04-25T12:14:26;10.50;98.50
60027;DHT22;45891;53.006;6.512;2023-04-25T12:16:55;10.20;97.50
60027;DHT22;45891;53.006;6.512;2023-04-25T12:19:23;10.40;97.40
60027;DHT22;45891;53.006;6.512;2023-04-25T12:21:50;10.40;98.20
60027;DHT22;45891;53.006;6.512;2023-04-25T12:24:17;9.60;98.90
60027;DHT22;45891;53.006;6.512;2023-04-25T12:29:24;8.60;99.40
60027;DHT22;45891;53.006;6.512;2023-04-25T12:31:51;8.50;99.70
60027;DHT22;45891;53.006;6.512;2023-04-25T12:34:22;8.60;99.50
60027;DHT22;45891;53.006;6.512;2023-04-25T12:36:49;8.90;99.90
60027;DHT22;45891;53.006;6.512;2023-04-25T12:39:22;9.10;98.60
60027;DHT22;45891;53.006;6.512;2023-04-25T12:41:50;9.60;99.00
60027;DHT22;45891;53.006;6.512;2023-04-25T12:44:16;10.30;99.10
60027;DHT22;45891;53.006;6.512;2023-04-25T12:46:43;10.70;98.50
60027;DHT22;45891;53.006;6.512;2023-04-25T12:49:09;10.80;98.80
60027;DHT22;45891;53.006;6.512;2023-04-25T12:51:36;10.70;98.10
60027;DHT22;45891;53.006;6.512;2023-04-25T12:54:03;10.60;98.70
60027;DHT22;45891;53.006;6.512;2023-04-25T12:56:31;10.50;98.50
60027;DHT22;45891;53.006;6.512;2023-04-25T12:58:57;10.20;99.40
60027;DHT22;45891;53.006;6.512;2023-04-25T13:01:25;10.40;99.30
60027;DHT22;45891;53.006;6.512;2023-04-25T13:03:52;10.80;99.00
60027;DHT22;45891;53.006;6.512;2023-04-25T13:06:19;11.20;98.00
60027;DHT22;45891;53.006;6.512;2023-04-25T13:08:46;11.50;98.20
60027;DHT22;45891;53.006;6.512;2023-04-25T13:11:12;11.70;97.20
60027;DHT22;45891;53.006;6.512;2023-04-25T13:13:41;12.10;97.80
60027;DHT22;45891;53.006;6.512;2023-04-25T13:16:07;11.60;96.80
60027;DHT22;45891;53.006;6.512;2023-04-25T13:18:34;11.30;97.30
60027;DHT22;45891;53.006;6.512;2023-04-25T13:21:01;10.70;98.00
60027;DHT22;45891;53.006;6.512;2023-04-25T13:23:28;9.30;99.90
60027;DHT22;45891;53.006;6.512;2023-04-25T13:25:55;8.90;99.90
60027;DHT22;45891;53.006;6.512;2023-04-25T13:28:27;8.90;99.90
60027;DHT22;45891;53.006;6.512;2023-04-25T13:30:53;9.00;99.90
60027;DHT22;45891;53.006;6.512;2023-04-25T13:33:20;9.10;99.90
60027;DHT22;45891;53.006;6.512;2023-04-25T13:35:48;10.00;99.90
60027;DHT22;45891;53.006;6.512;2023-04-25T13:38:24;10.90;99.90
60027;DHT22;45891;53.006;6.512;2023-04-25T13:40:51;11.80;98.60
60027;DHT22;45891;53.006;6.512;2023-04-25T13:43:22;12.00;97.70
60027;DHT22;45891;53.006;6.512;2023-04-25T13:45:49;11.60;97.70
60027;DHT22;45891;53.006;6.512;2023-04-25T13:48:16;11.10;97.60
60027;DHT22;45891;53.006;6.512;2023-04-25T13:50:42;10.30;98.60
60027;DHT22;45891;53.006;6.512;2023-04-25T13:53:08;10.00;98.90
60027;DHT22;45891;53.006;6.512;2023-04-25T13:55:34;9.40;99.90
60027;DHT22;45891;53.006;6.512;2023-04-25T13:58:04;8.80;99.90
60027;DHT22;45891;53.006;6.512;2023-04-25T14:00:38;8.60;99.90
60027;DHT22;45891;53.006;6.512;2023-04-25T14:03:04;9.00;99.90
60027;DHT22;45891;53.006;6.512;2023-04-25T14:05:33;9.30;99.90
60027;DHT22;45891;53.006;6.512;2023-04-25T14:08:07;9.90;99.90
60027;DHT22;45891;53.006;6.512;2023-04-25T14:10:34;9.90;99.90
60027;DHT22;45891;53.006;6.512;2023-04-25T14:13:00;9.70;99.90
60027;DHT22;45891;53.006;6.512;2023-04-25T14:15:27;10.00;99.90
60027;DHT22;45891;53.006;6.512;2023-04-25T14:17:53;10.70;99.90
60027;DHT22;45891;53.006;6.512;2023-04-25T14:20:19;10.50;99.90
60027;DHT22;45891;53.006;6.512;2023-04-25T14:22:47;10.40;99.90
60027;DHT22;45891;53.006;6.512;2023-04-25T14:25:13;10.10;99.70
60027;DHT22;45891;53.006;6.512;2023-04-25T14:27:39;10.90;99.40
60027;DHT22;45891;53.006;6.512;2023-04-25T14:30:06;11.00;98.80
60027;DHT22;45891;53.006;6.512;2023-04-25T14:32:34;11.70;99.90
60027;DHT22;45891;53.006;6.512;2023-04-25T14:35:00;12.60;99.10
60027;DHT22;45891;53.006;6.512;2023-04-25T14:37:27;12.50;98.00
60027;DHT22;45891;53.006;6.512;2023-04-25T14:39:53;11.70;97.70
60027;DHT22;45891;53.006;6.512;2023-04-25T14:42:19;11.20;99.00
60027;DHT22;45891;53.006;6.512;2023-04-25T14:44:45;10.90;99.70
60027;DHT22;45891;53.006;6.512;2023-04-25T14:47:11;10.90;99.60
60027;DHT22;45891;53.006;6.512;2023-04-25T14:49:37;11.10;99.30
60027;DHT22;45891;53.006;6.512;2023-04-25T14:52:03;11.50;97.90
60027;DHT22;45891;53.006;6.512;2023-04-25T14:54:29;12.20;97.80
60027;DHT22;45891;53.006;6.512;2023-04-25T14:56:55;12.60;95.50
60027;DHT22;45891;53.006;6.512;2023-04-25T14:59:22;12.70;95.50
60027;DHT22;45891;53.006;6.512;2023-04-25T15:01:49;12.60;94.70
60027;DHT22;45891;53.006;6.512;2023-04-25T15:04:15;12.60;93.70
60027;DHT22;45891;53.006;6.512;2023-04-25T15:06:43;12.20;93.30
60027;DHT22;45891;53.006;6.512;2023-04-25T15:09:09;12.20;92.90
60027;DHT22;45891;53.006;6.512;2023-04-25T15:11:37;11.80;93.20
60027;DHT22;45891;53.006;6.512;2023-04-25T15:14:03;11.70;93.90
60027;DHT22;45891;53.006;6.512;2023-04-25T15:16:29;11.20;94.60
60027;DHT22;45891;53.006;6.512;2023-04-25T15:18:56;10.50;95.40
60027;DHT22;45891;53.006;6.512;2023-04-25T15:21:22;11.20;95.70
60027;DHT22;45891;53.006;6.512;2023-04-25T15:23:49;10.60;96.40
60027;DHT22;45891;53.006;6.512;2023-04-25T15:26:15;10.20;97.70
60027;DHT22;45891;53.006;6.512;2023-04-25T15:28:41;10.00;98.10
60027;DHT22;45891;53.006;6.512;2023-04-25T15:31:08;9.70;98.60
60027;DHT22;45891;53.006;6.512;2023-04-25T15:33:34;9.60;99.00
60027;DHT22;45891;53.006;6.512;2023-04-25T15:36:00;9.50;99.30
60027;DHT22;45891;53.006;6.512;2023-04-25T15:38:29;9.50;99.30
60027;DHT22;45891;53.006;6.512;2023-04-25T15:40:55;9.40;99.00
60027;DHT22;45891;53.006;6.512;2023-04-25T15:43:21;9.80;99.00
60027;DHT22;45891;53.006;6.512;2023-04-25T15:45:47;11.10;98.50
60027;DHT22;45891;53.006;6.512;2023-04-25T15:48:13;10.60;97.00
60027;DHT22;45891;53.006;6.512;2023-04-25T15:50:40;9.60;98.40